sensor_id;sensor_type;location;lat;lon;timestamp;P1;durP1;ratioP1;P2;durP2;ratioP2
6031;SDS011;3044;43.232;27.972;2023-02-18T00:01:44;19.57;;;13.10;;
6031;SDS011;3044;43.232;27.972;2023-02-18T00:04:11;19.40;;;11.10;;
6031;SDS011;3044;43.232;27.972;2023-02-18T00:06:39;20.77;;;11.80;;
6031;SDS011;3044;43.232;27.972;2023-02-18T00:09:06;20.47;;;11.73;;
6031;SDS011;3044;43.232;27.972;2023-02-18T00:11:34;21.97;;;12.23;;
6031;SDS011;3044;43.232;27.972;2023-02-18T00:14:02;17.23;;;11.53;;
6031;SDS011;3044;43.232;27.972;2023-02-18T00:16:32;18.63;;;12.03;;
6031;SDS011;3044;43.232;27.972;2023-02-18T00:19:00;24.03;;;11.90;;
6031;SDS011;3044;43.232;27.972;2023-02-18T00:21:29;18.80;;;11.07;;
6031;SDS011;3044;43.232;27.972;2023-02-18T00:23:59;21.17;;;12.83;;
6031;SDS011;3044;43.232;27.972;2023-02-18T00:26:26;18.33;;;12.10;;
6031;SDS011;3044;43.232;27.972;2023-02-18T00:28:54;15.43;;;10.70;;
6031;SDS011;3044;43.232;27.972;2023-02-18T00:31:21;17.27;;;11.43;;
6031;SDS011;3044;43.232;27.972;2023-02-18T00:33:52;15.63;;;11.67;;
6031;SDS011;3044;43.232;27.972;2023-02-18T00:36:20;18.93;;;12.47;;
6031;SDS011;3044;43.232;27.972;2023-02-18T00:38:48;24.40;;;11.80;;
6031;SDS011;3044;43.232;27.972;2023-02-18T00:41:16;30.00;;;12.50;;
6031;SDS011;3044;43.232;27.972;2023-02-18T00:43:44;18.10;;;11.30;;
6031;SDS011;3044;43.232;27.972;2023-02-18T00:46:11;23.10;;;12.33;;
6031;SDS011;3044;43.232;27.972;2023-02-18T00:48:39;23.23;;;12.17;;
6031;SDS011;3044;43.232;27.972;2023-02-18T00:51:07;20.93;;;11.93;;
6031;SDS011;3044;43.232;27.972;2023-02-18T00:53:35;25.77;;;13.57;;
6031;SDS011;3044;43.232;27.972;2023-02-18T00:56:03;20.60;;;12.47;;
6031;SDS011;3044;43.232;27.972;2023-02-18T00:58:31;21.40;;;12.20;;
6031;SDS011;3044;43.232;27.972;2023-02-18T01:00:58;20.50;;;12.00;;
6031;SDS011;3044;43.232;27.972;2023-02-18T01:03:26;18.20;;;11.50;;
6031;SDS011;3044;43.232;27.972;2023-02-18T01:05:53;19.10;;;10.93;;
6031;SDS011;3044;43.232;27.972;2023-02-18T01:08:22;19.20;;;10.47;;
6031;SDS011;3044;43.232;27.972;2023-02-18T01:10:51;21.70;;;11.30;;
6031;SDS011;3044;43.232;27.972;2023-02-18T01:13:19;23.37;;;12.17;;
6031;SDS011;3044;43.232;27.972;2023-02-18T01:15:47;15.73;;;11.57;;
6031;SDS011;3044;43.232;27.972;2023-02-18T01:18:14;17.20;;;10.97;;
6031;SDS011;3044;43.232;27.972;2023-02-18T01:20:42;17.73;;;11.10;;
6031;SDS011;3044;43.232;27.972;2023-02-18T01:23:10;31.67;;;11.37;;
6031;SDS011;3044;43.232;27.972;2023-02-18T01:25:40;19.63;;;10.63;;
6031;SDS011;3044;43.232;27.972;2023-02-18T01:28:07;16.60;;;10.57;;
6031;SDS011;3044;43.232;27.972;2023-02-18T01:30:36;18.63;;;10.83;;
6031;SDS011;3044;43.232;27.972;2023-02-18T01:33:03;20.67;;;11.57;;
6031;SDS011;3044;43.232;27.972;2023-02-18T01:35:30;16.47;;;10.93;;
6031;SDS011;3044;43.232;27.972;2023-02-18T01:37:58;16.73;;;10.17;;
6031;SDS011;3044;43.232;27.972;2023-02-18T01:40:25;16.07;;;10.17;;
6031;SDS011;3044;43.232;27.972;2023-02-18T01:42:56;14.00;;;10.40;;
6031;SDS011;3044;43.232;27.972;2023-02-18T01:48:26;18.50;;;11.00;;
6031;SDS011;3044;43.232;27.972;2023-02-18T01:50:56;18.83;;;11.03;;
6031;SDS011;3044;43.232;27.972;2023-02-18T01:53:28;15.67;;;10.87;;
6031;SDS011;3044;43.232;27.972;2023-02-18T01:55:59;22.67;;;10.47;;
6031;SDS011;3044;43.232;27.972;2023-02-18T01:58:32;14.63;;;10.20;;
6031;SDS011;3044;43.232;27.972;2023-02-18T02:00:59;16.93;;;10.63;;
6031;SDS011;3044;43.232;27.972;2023-02-18T02:03:26;17.90;;;10.67;;
6031;SDS011;3044;43.232;27.972;2023-02-18T02:05:54;24.63;;;12.63;;
6031;SDS011;3044;43.232;27.972;2023-02-18T02:08:21;20.33;;;12.33;;
6031;SDS011;3044;43.232;27.972;2023-02-18T02:10:57;17.57;;;11.37;;
6031;SDS011;3044;43.232;27.972;2023-02-18T02:13:38;19.00;;;11.00;;
6031;SDS011;3044;43.232;27.972;2023-02-18T02:16:15;16.03;;;10.63;;
6031;SDS011;3044;43.232;27.972;2023-02-18T02:18:53;21.23;;;11.57;;
6031;SDS011;3044;43.232;27.972;2023-02-18T02:24:49;15.23;;;9.63;;
6031;SDS011;3044;43.232;27.972;2023-02-18T02:27:45;22.97;;;11.60;;
6031;SDS011;3044;43.232;27.972;2023-02-18T02:30:37;18.87;;;12.23;;
6031;SDS011;3044;43.232;27.972;2023-02-18T02:36:26;20.93;;;13.47;;
6031;SDS011;3044;43.232;27.972;2023-02-18T02:38:59;17.63;;;10.27;;
6031;SDS011;3044;43.232;27.972;2023-02-18T02:41:38;20.40;;;11.53;;
6031;SDS011;3044;43.232;27.972;2023-02-18T02:44:18;20.47;;;11.57;;
6031;SDS011;3044;43.232;27.972;2023-02-18T02:46:47;17.53;;;11.00;;
6031;SDS011;3044;43.232;27.972;2023-02-18T02:49:21;23.23;;;11.53;;
6031;SDS011;3044;43.232;27.972;2023-02-18T02:52:01;20.67;;;11.57;;
6031;SDS011;3044;43.232;27.972;2023-02-18T02:54:31;20.23;;;12.50;;
6031;SDS011;3044;43.232;27.972;2023-02-18T02:57:03;18.80;;;12.17;;
6031;SDS011;3044;43.232;27.972;2023-02-18T02:59:32;24.13;;;13.37;;
6031;SDS011;3044;43.232;27.972;2023-02-18T03:02:07;16.47;;;11.67;;
6031;SDS011;3044;43.232;27.972;2023-02-18T03:04:59;17.50;;;11.20;;
6031;SDS011;3044;43.232;27.972;2023-02-18T03:10:38;13.50;;;10.30;;
6031;SDS011;3044;43.232;27.972;2023-02-18T03:13:15;20.17;;;10.70;;
6031;SDS011;3044;43.232;27.972;2023-02-18T03:15:48;18.20;;;11.67;;
6031;SDS011;3044;43.232;27.972;2023-02-18T03:18:22;14.30;;;10.20;;
6031;SDS011;3044;43.232;27.972;2023-02-18T03:20:56;17.33;;;10.63;;
6031;SDS011;3044;43.232;27.972;2023-02-18T03:23:31;17.57;;;11.20;;
6031;SDS011;3044;43.232;27.972;2023-02-18T03:26:04;19.83;;;10.80;;
6031;SDS011;3044;43.232;27.972;2023-02-18T03:28:34;14.60;;;9.90;;
6031;SDS011;3044;43.232;27.972;2023-02-18T03:31:04;24.23;;;12.70;;
6031;SDS011;3044;43.232;27.972;2023-02-18T03:33:36;15.23;;;9.70;;
6031;SDS011;3044;43.232;27.972;2023-02-18T03:36:08;17.33;;;10.20;;
6031;SDS011;3044;43.232;27.972;2023-02-18T03:38:38;17.53;;;10.57;;
6031;SDS011;3044;43.232;27.972;2023-02-18T03:41:09;19.00;;;11.03;;
6031;SDS011;3044;43.232;27.972;2023-02-18T03:43:36;15.23;;;10.57;;
6031;SDS011;3044;43.232;27.972;2023-02-18T03:46:06;15.30;;;9.10;;
6031;SDS011;3044;43.232;27.972;2023-02-18T03:48:33;14.67;;;10.40;;
6031;SDS011;3044;43.232;27.972;2023-02-18T03:51:01;16.10;;;10.50;;
6031;SDS011;3044;43.232;27.972;2023-02-18T03:53:28;14.90;;;10.30;;
6031;SDS011;3044;43.232;27.972;2023-02-18T03:55:56;14.40;;;10.37;;
6031;SDS011;3044;43.232;27.972;2023-02-18T03:58:23;17.70;;;10.73;;
6031;SDS011;3044;43.232;27.972;2023-02-18T04:00:51;19.73;;;12.20;;
6031;SDS011;3044;43.232;27.972;2023-02-18T04:03:18;19.40;;;11.83;;
6031;SDS011;3044;43.232;27.972;2023-02-18T04:05:45;21.30;;;12.47;;
6031;SDS011;3044;43.232;27.972;2023-02-18T04:08:12;18.07;;;12.33;;
6031;SDS011;3044;43.232;27.972;2023-02-18T04:10:39;22.17;;;13.03;;
6031;SDS011;3044;43.232;27.972;2023-02-18T04:13:08;17.03;;;11.77;;
6031;SDS011;3044;43.232;27.972;2023-02-18T04:15:35;20.77;;;12.50;;
6031;SDS011;3044;43.232;27.972;2023-02-18T04:18:02;19.40;;;11.90;;
6031;SDS011;3044;43.232;27.972;2023-02-18T04:20:30;16.13;;;10.77;;
6031;SDS011;3044;43.232;27.972;2023-02-18T04:22:57;20.27;;;12.60;;
6031;SDS011;3044;43.232;27.972;2023-02-18T04:25:24;19.33;;;11.83;;
6031;SDS011;3044;43.232;27.972;2023-02-18T04:27:51;19.03;;;11.83;;
6031;SDS011;3044;43.232;27.972;2023-02-18T04:30:20;14.97;;;11.07;;
6031;SDS011;3044;43.232;27.972;2023-02-18T04:32:47;13.50;;;10.43;;
6031;SDS011;3044;43.232;27.972;2023-02-18T04:35:15;16.73;;;10.93;;
6031;SDS011;3044;43.232;27.972;2023-02-18T04:37:42;17.53;;;11.40;;
6031;SDS011;3044;43.232;27.972;2023-02-18T04:40:09;18.03;;;11.23;;
6031;SDS011;3044;43.232;27.972;2023-02-18T04:42:37;17.03;;;10.10;;
6031;SDS011;3044;43.232;27.972;2023-02-18T04:45:04;25.83;;;10.07;;
6031;SDS011;3044;43.232;27.972;2023-02-18T04:47:33;31.27;;;11.57;;
6031;SDS011;3044;43.232;27.972;2023-02-18T04:50:00;17.07;;;11.40;;
6031;SDS011;3044;43.232;27.972;2023-02-18T04:52:28;16.50;;;12.30;;
6031;SDS011;3044;43.232;27.972;2023-02-18T04:54:55;17.63;;;11.47;;
6031;SDS011;3044;43.232;27.972;2023-02-18T04:57:22;17.60;;;11.27;;
6031;SDS011;3044;43.232;27.972;2023-02-18T04:59:49;20.40;;;13.10;;
6031;SDS011;3044;43.232;27.972;2023-02-18T05:02:16;17.80;;;12.37;;
6031;SDS011;3044;43.232;27.972;2023-02-18T05:04:45;15.10;;;11.50;;
6031;SDS011;3044;43.232;27.972;2023-02-18T05:07:12;19.27;;;10.63;;
6031;SDS011;3044;43.232;27.972;2023-02-18T05:09:39;22.67;;;10.93;;
6031;SDS011;3044;43.232;27.972;2023-02-18T05:12:06;17.30;;;11.40;;
6031;SDS011;3044;43.232;27.972;2023-02-18T05:14:34;19.40;;;10.10;;
6031;SDS011;3044;43.232;27.972;2023-02-18T05:17:01;11.47;;;8.77;;
6031;SDS011;3044;43.232;27.972;2023-02-18T05:19:28;14.87;;;10.23;;
6031;SDS011;3044;43.232;27.972;2023-02-18T05:21:57;13.10;;;9.27;;
6031;SDS011;3044;43.232;27.972;2023-02-18T05:24:24;12.40;;;8.90;;
6031;SDS011;3044;43.232;27.972;2023-02-18T05:26:51;13.30;;;9.53;;
6031;SDS011;3044;43.232;27.972;2023-02-18T05:29:18;22.83;;;12.70;;
6031;SDS011;3044;43.232;27.972;2023-02-18T05:31:45;13.67;;;9.60;;
6031;SDS011;3044;43.232;27.972;2023-02-18T05:34:12;18.90;;;10.57;;
6031;SDS011;3044;43.232;27.972;2023-02-18T05:36:39;18.53;;;10.93;;
6031;SDS011;3044;43.232;27.972;2023-02-18T05:39:08;16.07;;;11.37;;
6031;SDS011;3044;43.232;27.972;2023-02-18T05:41:35;14.57;;;9.37;;
6031;SDS011;3044;43.232;27.972;2023-02-18T05:44:02;21.20;;;9.67;;
6031;SDS011;3044;43.232;27.972;2023-02-18T05:46:46;17.53;;;10.43;;
6031;SDS011;3044;43.232;27.972;2023-02-18T05:49:13;15.53;;;9.03;;
6031;SDS011;3044;43.232;27.972;2023-02-18T05:51:40;18.07;;;9.87;;
6031;SDS011;3044;43.232;27.972;2023-02-18T05:54:09;14.70;;;9.43;;
6031;SDS011;3044;43.232;27.972;2023-02-18T05:56:36;26.80;;;10.23;;
6031;SDS011;3044;43.232;27.972;2023-02-18T05:59:03;23.23;;;10.30;;
6031;SDS011;3044;43.232;27.972;2023-02-18T06:01:30;14.67;;;9.37;;
6031;SDS011;3044;43.232;27.972;2023-02-18T06:03:57;17.27;;;11.37;;
6031;SDS011;3044;43.232;27.972;2023-02-18T06:06:24;22.30;;;12.20;;
6031;SDS011;3044;43.232;27.972;2023-02-18T06:08:51;34.97;;;11.50;;
6031;SDS011;3044;43.232;27.972;2023-02-18T06:11:20;21.47;;;10.87;;
6031;SDS011;3044;43.232;27.972;2023-02-18T06:13:47;15.57;;;9.50;;
6031;SDS011;3044;43.232;27.972;2023-02-18T06:16:14;11.97;;;9.23;;
6031;SDS011;3044;43.232;27.972;2023-02-18T06:18:41;19.13;;;10.90;;
6031;SDS011;3044;43.232;27.972;2023-02-18T06:21:09;15.70;;;9.13;;
6031;SDS011;3044;43.232;27.972;2023-02-18T06:23:36;25.13;;;13.40;;
6031;SDS011;3044;43.232;27.972;2023-02-18T06:26:03;21.23;;;10.10;;
6031;SDS011;3044;43.232;27.972;2023-02-18T06:28:31;21.40;;;10.37;;
6031;SDS011;3044;43.232;27.972;2023-02-18T06:30:59;20.90;;;10.40;;
6031;SDS011;3044;43.232;27.972;2023-02-18T06:33:26;23.33;;;11.63;;
6031;SDS011;3044;43.232;27.972;2023-02-18T06:35:54;15.87;;;10.00;;
6031;SDS011;3044;43.232;27.972;2023-02-18T06:38:22;18.37;;;11.33;;
6031;SDS011;3044;43.232;27.972;2023-02-18T06:40:49;17.57;;;12.07;;
6031;SDS011;3044;43.232;27.972;2023-02-18T06:43:16;23.67;;;13.33;;
6031;SDS011;3044;43.232;27.972;2023-02-18T06:45:45;16.20;;;9.47;;
6031;SDS011;3044;43.232;27.972;2023-02-18T06:48:12;16.73;;;9.30;;
6031;SDS011;3044;43.232;27.972;2023-02-18T06:50:41;16.03;;;9.50;;
6031;SDS011;3044;43.232;27.972;2023-02-18T06:53:08;17.37;;;10.87;;
6031;SDS011;3044;43.232;27.972;2023-02-18T06:55:35;20.90;;;10.40;;
6031;SDS011;3044;43.232;27.972;2023-02-18T06:58:03;12.33;;;8.17;;
6031;SDS011;3044;43.232;27.972;2023-02-18T07:00:30;22.50;;;11.73;;
6031;SDS011;3044;43.232;27.972;2023-02-18T07:02:59;14.50;;;11.30;;
6031;SDS011;3044;43.232;27.972;2023-02-18T07:05:26;22.50;;;11.20;;
6031;SDS011;3044;43.232;27.972;2023-02-18T07:07:53;18.70;;;11.87;;
6031;SDS011;3044;43.232;27.972;2023-02-18T07:10:20;16.13;;;9.50;;
6031;SDS011;3044;43.232;27.972;2023-02-18T07:12:47;9.33;;;7.67;;
6031;SDS011;3044;43.232;27.972;2023-02-18T07:15:15;11.43;;;8.40;;
6031;SDS011;3044;43.232;27.972;2023-02-18T07:17:42;15.93;;;10.03;;
6031;SDS011;3044;43.232;27.972;2023-02-18T07:20:11;11.23;;;9.13;;
6031;SDS011;3044;43.232;27.972;2023-02-18T07:22:38;11.30;;;7.80;;
6031;SDS011;3044;43.232;27.972;2023-02-18T07:25:05;14.27;;;9.77;;
6031;SDS011;3044;43.232;27.972;2023-02-18T07:27:33;18.00;;;9.50;;
6031;SDS011;3044;43.232;27.972;2023-02-18T07:30:00;17.03;;;10.43;;
6031;SDS011;3044;43.232;27.972;2023-02-18T07:32:27;23.07;;;12.33;;
6031;SDS011;3044;43.232;27.972;2023-02-18T07:34:54;15.63;;;8.63;;
6031;SDS011;3044;43.232;27.972;2023-02-18T07:37:23;14.13;;;9.70;;
6031;SDS011;3044;43.232;27.972;2023-02-18T07:39:50;16.30;;;10.60;;
6031;SDS011;3044;43.232;27.972;2023-02-18T07:42:17;11.87;;;8.80;;
6031;SDS011;3044;43.232;27.972;2023-02-18T07:44:44;10.90;;;7.70;;
6031;SDS011;3044;43.232;27.972;2023-02-18T07:47:12;9.50;;;7.13;;
6031;SDS011;3044;43.232;27.972;2023-02-18T07:49:43;10.47;;;7.17;;
6031;SDS011;3044;43.232;27.972;2023-02-18T07:52:10;10.70;;;7.53;;
6031;SDS011;3044;43.232;27.972;2023-02-18T07:54:38;15.30;;;8.90;;
6031;SDS011;3044;43.232;27.972;2023-02-18T07:57:06;14.90;;;9.03;;
6031;SDS011;3044;43.232;27.972;2023-02-18T07:59:33;16.90;;;9.17;;
6031;SDS011;3044;43.232;27.972;2023-02-18T08:02:00;21.33;;;9.33;;
6031;SDS011;3044;43.232;27.972;2023-02-18T08:04:27;12.00;;;8.20;;
6031;SDS011;3044;43.232;27.972;2023-02-18T08:06:54;18.67;;;9.00;;
6031;SDS011;3044;43.232;27.972;2023-02-18T08:09:21;19.30;;;11.93;;
6031;SDS011;3044;43.232;27.972;2023-02-18T08:11:50;14.30;;;10.80;;
6031;SDS011;3044;43.232;27.972;2023-02-18T08:14:17;14.70;;;9.87;;
6031;SDS011;3044;43.232;27.972;2023-02-18T08:16:44;12.50;;;9.13;;
6031;SDS011;3044;43.232;27.972;2023-02-18T08:19:11;17.03;;;10.37;;
6031;SDS011;3044;43.232;27.972;2023-02-18T08:21:38;21.73;;;8.63;;
6031;SDS011;3044;43.232;27.972;2023-02-18T08:24:06;13.83;;;8.17;;
6031;SDS011;3044;43.232;27.972;2023-02-18T08:26:33;13.13;;;7.57;;
6031;SDS011;3044;43.232;27.972;2023-02-18T08:29:02;10.17;;;7.27;;
6031;SDS011;3044;43.232;27.972;2023-02-18T08:31:29;11.17;;;7.93;;
6031;SDS011;3044;43.232;27.972;2023-02-18T08:33:58;14.23;;;8.60;;
6031;SDS011;3044;43.232;27.972;2023-02-18T08:36:26;11.77;;;7.43;;
6031;SDS011;3044;43.232;27.972;2023-02-18T08:38:53;13.90;;;7.80;;
6031;SDS011;3044;43.232;27.972;2023-02-18T08:41:20;12.97;;;7.80;;
6031;SDS011;3044;43.232;27.972;2023-02-18T08:43:48;11.70;;;8.40;;
6031;SDS011;3044;43.232;27.972;2023-02-18T08:46:16;14.83;;;8.37;;
6031;SDS011;3044;43.232;27.972;2023-02-18T08:48:44;12.10;;;7.63;;
6031;SDS011;3044;43.232;27.972;2023-02-18T08:51:14;14.00;;;8.03;;
6031;SDS011;3044;43.232;27.972;2023-02-18T08:53:43;20.60;;;9.90;;
6031;SDS011;3044;43.232;27.972;2023-02-18T08:56:11;17.70;;;8.97;;
6031;SDS011;3044;43.232;27.972;2023-02-18T08:58:39;17.90;;;9.10;;
6031;SDS011;3044;43.232;27.972;2023-02-18T09:01:07;14.30;;;9.60;;
6031;SDS011;3044;43.232;27.972;2023-02-18T09:03:38;26.80;;;11.37;;
6031;SDS011;3044;43.232;27.972;2023-02-18T09:06:05;12.57;;;9.43;;
6031;SDS011;3044;43.232;27.972;2023-02-18T09:08:33;18.00;;;8.87;;
6031;SDS011;3044;43.232;27.972;2023-02-18T09:11:01;21.00;;;9.60;;
6031;SDS011;3044;43.232;27.972;2023-02-18T09:13:30;16.77;;;9.10;;
6031;SDS011;3044;43.232;27.972;2023-02-18T09:15:58;17.60;;;7.80;;
6031;SDS011;3044;43.232;27.972;2023-02-18T09:18:26;9.50;;;7.17;;
6031;SDS011;3044;43.232;27.972;2023-02-18T09:20:56;12.90;;;7.07;;
6031;SDS011;3044;43.232;27.972;2023-02-18T09:23:24;11.47;;;7.63;;
6031;SDS011;3044;43.232;27.972;2023-02-18T09:25:52;14.63;;;9.03;;
6031;SDS011;3044;43.232;27.972;2023-02-18T09:28:19;13.60;;;7.90;;
6031;SDS011;3044;43.232;27.972;2023-02-18T09:30:47;24.20;;;9.00;;
6031;SDS011;3044;43.232;27.972;2023-02-18T09:33:14;22.30;;;9.77;;
6031;SDS011;3044;43.232;27.972;2023-02-18T09:35:41;16.00;;;9.10;;
6031;SDS011;3044;43.232;27.972;2023-02-18T09:38:12;13.83;;;8.67;;
6031;SDS011;3044;43.232;27.972;2023-02-18T09:40:41;20.83;;;8.57;;
6031;SDS011;3044;43.232;27.972;2023-02-18T09:43:12;21.07;;;6.60;;
6031;SDS011;3044;43.232;27.972;2023-02-18T09:45:48;9.00;;;6.70;;
6031;SDS011;3044;43.232;27.972;2023-02-18T09:48:17;10.00;;;5.80;;
6031;SDS011;3044;43.232;27.972;2023-02-18T09:50:46;11.40;;;6.33;;
6031;SDS011;3044;43.232;27.972;2023-02-18T09:53:20;18.23;;;6.60;;
6031;SDS011;3044;43.232;27.972;2023-02-18T09:55:48;13.67;;;6.73;;
6031;SDS011;3044;43.232;27.972;2023-02-18T09:58:18;17.90;;;6.87;;
6031;SDS011;3044;43.232;27.972;2023-02-18T10:00:47;11.67;;;6.77;;
6031;SDS011;3044;43.232;27.972;2023-02-18T10:03:16;13.23;;;7.93;;
6031;SDS011;3044;43.232;27.972;2023-02-18T10:05:49;9.60;;;7.67;;
6031;SDS011;3044;43.232;27.972;2023-02-18T10:08:24;7.33;;;6.20;;
6031;SDS011;3044;43.232;27.972;2023-02-18T10:10:53;18.57;;;8.33;;
6031;SDS011;3044;43.232;27.972;2023-02-18T10:13:21;10.93;;;6.60;;
6031;SDS011;3044;43.232;27.972;2023-02-18T10:15:50;10.90;;;6.77;;
6031;SDS011;3044;43.232;27.972;2023-02-18T10:18:24;19.87;;;8.40;;
6031;SDS011;3044;43.232;27.972;2023-02-18T10:20:56;17.40;;;8.03;;
6031;SDS011;3044;43.232;27.972;2023-02-18T10:23:31;8.30;;;5.90;;
6031;SDS011;3044;43.232;27.972;2023-02-18T10:26:01;12.40;;;6.63;;
6031;SDS011;3044;43.232;27.972;2023-02-18T10:28:31;20.33;;;9.33;;
6031;SDS011;3044;43.232;27.972;2023-02-18T10:31:01;9.70;;;7.10;;
6031;SDS011;3044;43.232;27.972;2023-02-18T10:33:34;9.83;;;6.40;;
6031;SDS011;3044;43.232;27.972;2023-02-18T10:36:20;12.20;;;6.47;;
6031;SDS011;3044;43.232;27.972;2023-02-18T10:39:01;11.73;;;6.37;;
6031;SDS011;3044;43.232;27.972;2023-02-18T10:41:58;8.07;;;5.90;;
6031;SDS011;3044;43.232;27.972;2023-02-18T10:44:36;7.80;;;5.87;;
6031;SDS011;3044;43.232;27.972;2023-02-18T10:47:19;11.50;;;5.67;;
6031;SDS011;3044;43.232;27.972;2023-02-18T10:49:59;11.47;;;7.03;;
6031;SDS011;3044;43.232;27.972;2023-02-18T10:52:29;10.77;;;6.10;;
6031;SDS011;3044;43.232;27.972;2023-02-18T10:55:03;11.80;;;5.70;;
6031;SDS011;3044;43.232;27.972;2023-02-18T10:57:33;6.57;;;5.47;;
6031;SDS011;3044;43.232;27.972;2023-02-18T11:00:14;14.07;;;6.43;;
6031;SDS011;3044;43.232;27.972;2023-02-18T11:02:44;14.63;;;5.30;;
6031;SDS011;3044;43.232;27.972;2023-02-18T11:05:17;13.07;;;6.20;;
6031;SDS011;3044;43.232;27.972;2023-02-18T11:07:49;10.83;;;6.53;;
6031;SDS011;3044;43.232;27.972;2023-02-18T11:10:21;12.37;;;5.30;;
6031;SDS011;3044;43.232;27.972;2023-02-18T11:12:54;18.23;;;7.07;;
6031;SDS011;3044;43.232;27.972;2023-02-18T11:15:23;12.10;;;6.90;;
6031;SDS011;3044;43.232;27.972;2023-02-18T11:17:52;8.47;;;6.30;;
6031;SDS011;3044;43.232;27.972;2023-02-18T11:20:25;9.90;;;5.77;;
6031;SDS011;3044;43.232;27.972;2023-02-18T11:22:58;12.97;;;6.73;;
6031;SDS011;3044;43.232;27.972;2023-02-18T11:25:51;6.87;;;6.17;;
6031;SDS011;3044;43.232;27.972;2023-02-18T11:28:26;6.93;;;4.83;;
6031;SDS011;3044;43.232;27.972;2023-02-18T11:30:57;19.87;;;5.80;;
6031;SDS011;3044;43.232;27.972;2023-02-18T11:33:30;15.43;;;6.17;;
6031;SDS011;3044;43.232;27.972;2023-02-18T11:36:02;17.83;;;6.20;;
6031;SDS011;3044;43.232;27.972;2023-02-18T11:38:41;11.60;;;5.43;;
6031;SDS011;3044;43.232;27.972;2023-02-18T11:41:14;9.03;;;5.73;;
6031;SDS011;3044;43.232;27.972;2023-02-18T11:43:44;9.77;;;5.87;;
6031;SDS011;3044;43.232;27.972;2023-02-18T11:46:14;12.80;;;6.20;;
6031;SDS011;3044;43.232;27.972;2023-02-18T11:48:42;11.23;;;7.20;;
6031;SDS011;3044;43.232;27.972;2023-02-18T11:51:13;13.90;;;8.77;;
6031;SDS011;3044;43.232;27.972;2023-02-18T11:53:53;12.03;;;6.60;;
6031;SDS011;3044;43.232;27.972;2023-02-18T11:56:25;10.73;;;5.93;;
6031;SDS011;3044;43.232;27.972;2023-02-18T11:58:55;10.30;;;5.17;;
6031;SDS011;3044;43.232;27.972;2023-02-18T12:01:37;6.37;;;5.43;;
6031;SDS011;3044;43.232;27.972;2023-02-18T12:04:12;9.83;;;5.70;;
6031;SDS011;3044;43.232;27.972;2023-02-18T12:06:44;6.50;;;4.77;;
6031;SDS011;3044;43.232;27.972;2023-02-18T12:09:19;7.67;;;5.23;;
6031;SDS011;3044;43.232;27.972;2023-02-18T12:11:54;11.33;;;7.00;;
6031;SDS011;3044;43.232;27.972;2023-02-18T12:14:24;5.93;;;5.30;;
6031;SDS011;3044;43.232;27.972;2023-02-18T12:17:00;27.40;;;6.10;;
6031;SDS011;3044;43.232;27.972;2023-02-18T12:19:42;12.80;;;4.90;;
6031;SDS011;3044;43.232;27.972;2023-02-18T12:22:21;7.23;;;5.23;;
6031;SDS011;3044;43.232;27.972;2023-02-18T12:25:02;5.83;;;5.23;;
6031;SDS011;3044;43.232;27.972;2023-02-18T12:27:38;10.63;;;4.80;;
6031;SDS011;3044;43.232;27.972;2023-02-18T12:30:21;6.30;;;4.07;;
6031;SDS011;3044;43.232;27.972;2023-02-18T12:33:03;5.87;;;4.67;;
6031;SDS011;3044;43.232;27.972;2023-02-18T12:35:47;5.50;;;4.47;;
6031;SDS011;3044;43.232;27.972;2023-02-18T12:41:24;5.47;;;4.47;;
6031;SDS011;3044;43.232;27.972;2023-02-18T12:44:08;9.50;;;6.20;;
6031;SDS011;3044;43.232;27.972;2023-02-18T12:46:58;5.83;;;5.00;;
6031;SDS011;3044;43.232;27.972;2023-02-18T12:49:42;8.90;;;4.90;;
6031;SDS011;3044;43.232;27.972;2023-02-18T12:52:31;7.57;;;5.10;;
6031;SDS011;3044;43.232;27.972;2023-02-18T12:55:14;7.53;;;4.70;;
6031;SDS011;3044;43.232;27.972;2023-02-18T12:57:52;20.47;;;5.40;;
6031;SDS011;3044;43.232;27.972;2023-02-18T13:00:38;10.93;;;5.90;;
6031;SDS011;3044;43.232;27.972;2023-02-18T13:06:21;8.30;;;4.67;;
6031;SDS011;3044;43.232;27.972;2023-02-18T13:08:58;8.13;;;5.17;;
6031;SDS011;3044;43.232;27.972;2023-02-18T13:11:35;5.77;;;4.57;;
6031;SDS011;3044;43.232;27.972;2023-02-18T13:14:10;11.57;;;4.50;;
6031;SDS011;3044;43.232;27.972;2023-02-18T13:16:42;3.97;;;3.63;;
6031;SDS011;3044;43.232;27.972;2023-02-18T13:19:14;8.10;;;3.77;;
6031;SDS011;3044;43.232;27.972;2023-02-18T13:21:46;4.40;;;4.00;;
6031;SDS011;3044;43.232;27.972;2023-02-18T13:24:20;5.97;;;5.03;;
6031;SDS011;3044;43.232;27.972;2023-02-18T13:26:53;6.57;;;4.57;;
6031;SDS011;3044;43.232;27.972;2023-02-18T13:29:27;7.03;;;4.77;;
6031;SDS011;3044;43.232;27.972;2023-02-18T13:32:03;10.23;;;4.80;;
6031;SDS011;3044;43.232;27.972;2023-02-18T13:34:39;8.20;;;4.67;;
6031;SDS011;3044;43.232;27.972;2023-02-18T13:37:15;5.90;;;4.67;;
6031;SDS011;3044;43.232;27.972;2023-02-18T13:39:48;9.80;;;4.30;;
6031;SDS011;3044;43.232;27.972;2023-02-18T13:42:23;5.43;;;4.33;;
6031;SDS011;3044;43.232;27.972;2023-02-18T13:45:02;14.10;;;4.00;;
6031;SDS011;3044;43.232;27.972;2023-02-18T13:47:49;11.00;;;5.30;;
6031;SDS011;3044;43.232;27.972;2023-02-18T13:56:00;15.97;;;4.90;;
6031;SDS011;3044;43.232;27.972;2023-02-18T13:58:33;6.03;;;4.60;;
6031;SDS011;3044;43.232;27.972;2023-02-18T14:01:04;15.30;;;4.77;;
6031;SDS011;3044;43.232;27.972;2023-02-18T14:03:51;6.13;;;3.50;;
6031;SDS011;3044;43.232;27.972;2023-02-18T14:06:20;6.93;;;4.80;;
6031;SDS011;3044;43.232;27.972;2023-02-18T14:08:49;5.30;;;4.67;;
6031;SDS011;3044;43.232;27.972;2023-02-18T14:11:37;5.67;;;4.30;;
6031;SDS011;3044;43.232;27.972;2023-02-18T14:26:05;10.20;;;5.17;;
6031;SDS011;3044;43.232;27.972;2023-02-18T14:28:38;5.30;;;4.80;;
6031;SDS011;3044;43.232;27.972;2023-02-18T14:31:27;12.83;;;5.33;;
6031;SDS011;3044;43.232;27.972;2023-02-18T14:40:03;5.47;;;4.63;;
6031;SDS011;3044;43.232;27.972;2023-02-18T14:42:43;9.10;;;5.47;;
6031;SDS011;3044;43.232;27.972;2023-02-18T14:45:20;4.80;;;4.30;;
6031;SDS011;3044;43.232;27.972;2023-02-18T14:48:04;6.13;;;4.03;;
6031;SDS011;3044;43.232;27.972;2023-02-18T14:50:44;4.87;;;4.33;;
6031;SDS011;3044;43.232;27.972;2023-02-18T14:53:16;12.00;;;4.37;;
6031;SDS011;3044;43.232;27.972;2023-02-18T14:55:46;9.70;;;6.33;;
6031;SDS011;3044;43.232;27.972;2023-02-18T14:58:19;8.10;;;5.30;;
6031;SDS011;3044;43.232;27.972;2023-02-18T15:00:53;6.57;;;4.90;;
6031;SDS011;3044;43.232;27.972;2023-02-18T15:03:21;8.70;;;5.60;;
6031;SDS011;3044;43.232;27.972;2023-02-18T15:05:49;6.13;;;5.00;;
6031;SDS011;3044;43.232;27.972;2023-02-18T15:08:18;7.23;;;4.90;;
6031;SDS011;3044;43.232;27.972;2023-02-18T15:10:47;6.00;;;5.17;;
6031;SDS011;3044;43.232;27.972;2023-02-18T15:13:19;8.67;;;5.20;;
6031;SDS011;3044;43.232;27.972;2023-02-18T15:15:51;7.57;;;6.87;;
6031;SDS011;3044;43.232;27.972;2023-02-18T15:18:22;5.73;;;4.70;;
6031;SDS011;3044;43.232;27.972;2023-02-18T15:20:54;7.67;;;4.60;;
6031;SDS011;3044;43.232;27.972;2023-02-18T15:23:23;11.90;;;4.70;;
6031;SDS011;3044;43.232;27.972;2023-02-18T15:25:50;14.10;;;4.90;;
6031;SDS011;3044;43.232;27.972;2023-02-18T15:28:23;12.77;;;5.57;;
6031;SDS011;3044;43.232;27.972;2023-02-18T15:30:52;6.63;;;4.10;;
6031;SDS011;3044;43.232;27.972;2023-02-18T15:33:22;10.37;;;4.73;;
6031;SDS011;3044;43.232;27.972;2023-02-18T15:35:49;7.00;;;4.70;;
6031;SDS011;3044;43.232;27.972;2023-02-18T15:38:17;12.30;;;4.80;;
6031;SDS011;3044;43.232;27.972;2023-02-18T15:40:48;5.90;;;5.20;;
6031;SDS011;3044;43.232;27.972;2023-02-18T15:43:18;5.33;;;4.73;;
6031;SDS011;3044;43.232;27.972;2023-02-18T15:45:48;5.10;;;4.40;;
6031;SDS011;3044;43.232;27.972;2023-02-18T15:48:25;10.30;;;4.70;;
6031;SDS011;3044;43.232;27.972;2023-02-18T15:50:57;7.97;;;5.50;;